»·PEaware :: WAT306 KDEN-KLAS

WAT306 :: KDEN-KLAS

FLIGHT INFORMATION

Flight Status: Arrived
Operator:
Walker Air Transport
More flights by this operator :: More flights under this callsign
Pilot: Ethan S. (29221)
Aircraft: BOEING 737-800
(B738)
More flights by this aircraft type
Origin: KDEN Denver Intl
United States
Destination: KLAS McCarran Intl
United States
More flights between these airports :: More routes between these airports
Route: CONNR7 WERNR ZAKRY GGAPP CHOWW1
File this flight plan on PilotEdge
Remarks:
Altitude:
(Current/Filed)
34,000ft
Speed:
(Current/Filed)
440kts
Departed: 01-Mar-21 04:05 PM
Arrived: 01-Mar-21 05:32 PM
Distance/Time
Traveled:
545nm/1:27
Distance/Time
To Go:
Arrived

Flight Plot

Page will automatically refresh every two minutes.

Flight plan parsing failed; only flown route is shown


Map Options




Map Legend


Flown Route
Filed Route
Departure Airport
Arrival Airport
Navaid (VOR, NDB)
Fix

Horizontal Profiles

Position Reports

Time Latitude Longitude Heading Altitude Ground
Speed
01-Mar-21 15:26 39.859388 -104.677351 180 5443ft 0kts
01-Mar-21 15:27 39.859388 -104.677351 180 5443ft 0kts
01-Mar-21 15:28 39.859388 -104.677351 180 5443ft 0kts
01-Mar-21 15:29 39.859388 -104.677351 180 5443ft 0kts
01-Mar-21 15:30 39.859388 -104.677351 180 5443ft 0kts
01-Mar-21 15:31 39.859388 -104.677351 180 5443ft 0kts
01-Mar-21 15:32 39.859388 -104.677351 180 5443ft 0kts
01-Mar-21 15:33 39.859388 -104.677351 180 5443ft 0kts
01-Mar-21 15:34 39.859388 -104.677351 180 5443ft 0kts
01-Mar-21 15:35 39.859388 -104.677351 180 5443ft 0kts
01-Mar-21 15:36 39.859388 -104.677351 180 5443ft 0kts
01-Mar-21 15:37 39.859388 -104.677351 180 5443ft 0kts
01-Mar-21 15:38 39.859388 -104.677351 180 5443ft 0kts
01-Mar-21 15:39 39.859388 -104.677351 180 5443ft 0kts
01-Mar-21 15:40 39.859388 -104.677351 180 5443ft 0kts
01-Mar-21 15:41 39.859388 -104.677351 180 5443ft 0kts
01-Mar-21 15:42 39.859388 -104.677351 180 5443ft 0kts
01-Mar-21 15:43 39.859388 -104.677351 180 5443ft 0kts
01-Mar-21 15:44 39.859388 -104.677351 180 5443ft 0kts
01-Mar-21 15:45 39.859388 -104.677351 180 5443ft 0kts
01-Mar-21 15:46 39.859388 -104.677351 180 5443ft 0kts
01-Mar-21 15:47 39.859388 -104.677351 180 5443ft 0kts
01-Mar-21 15:48 39.859388 -104.677351 180 5443ft 0kts
01-Mar-21 15:49 39.859388 -104.677351 180 5443ft 0kts
01-Mar-21 15:50 39.859388 -104.677351 180 5443ft 0kts
01-Mar-21 15:51 39.859388 -104.677351 180 5443ft 0kts
01-Mar-21 15:52 39.859655 -104.677350 180 5443ft 1kts
01-Mar-21 15:53 39.860043 -104.677811 92 5443ft 0kts
01-Mar-21 15:54 39.860043 -104.677906 89 5443ft 0kts
01-Mar-21 15:55 39.860043 -104.677906 89 5443ft 0kts
01-Mar-21 15:56 39.860043 -104.677906 89 5443ft 0kts
01-Mar-21 15:57 39.860043 -104.677906 89 5443ft 0kts
01-Mar-21 15:58 39.860034 -104.676218 90 5443ft 9kts
01-Mar-21 15:59 39.859993 -104.669985 87 5443ft 14kts
01-Mar-21 16:00 39.860596 -104.666582 90 5443ft 10kts
01-Mar-21 16:01 39.860561 -104.665914 103 5443ft 0kts
01-Mar-21 16:02 39.861059 -104.663499 90 5443ft 10kts
01-Mar-21 16:03 39.861046 -104.661400 90 5443ft 6kts
01-Mar-21 16:04 39.856319 -104.660214 179 5443ft 84kts
01-Mar-21 16:05 39.810660 -104.661138 180 6612ft 201kts
01-Mar-21 16:06 39.792400 -104.727919 300 8642ft 281kts
01-Mar-21 16:08 39.822329 -104.825107 288 11113ft 318kts
01-Mar-21 16:09 39.834223 -104.944143 261 13651ft 345kts
01-Mar-21 16:10 39.811345 -105.067017 255 16418ft 355kts
01-Mar-21 16:11 39.786460 -105.193376 255 18878ft 366kts
01-Mar-21 16:12 39.759351 -105.322897 255 21067ft 377kts
01-Mar-21 16:13 39.731695 -105.456365 256 23015ft 389kts
01-Mar-21 16:14 39.703311 -105.594032 257 24759ft 400kts
01-Mar-21 16:15 39.679189 -105.736423 261 26357ft 409kts
01-Mar-21 16:16 39.659126 -105.883427 262 27777ft 420kts
01-Mar-21 16:17 39.638407 -106.034688 262 29043ft 431kts
01-Mar-21 16:18 39.616984 -106.189784 262 30162ft 443kts
01-Mar-21 16:19 39.594768 -106.349078 262 31251ft 452kts
01-Mar-21 16:20 39.572126 -106.509665 262 32569ft 453kts
01-Mar-21 16:21 39.544450 -106.669422 253 33760ft 458kts
01-Mar-21 16:22 39.499092 -106.823783 250 34367ft 460kts
01-Mar-21 16:23 39.452031 -106.976247 249 34354ft 455kts
01-Mar-21 16:24 39.404433 -107.127952 249 34328ft 455kts
01-Mar-21 16:25 39.355089 -107.278285 247 34312ft 456kts
01-Mar-21 16:26 39.303051 -107.427462 247 34335ft 455kts
01-Mar-21 16:26 39.259739 -107.551967 247 34357ft 455kts
01-Mar-21 16:28 39.199180 -107.725735 246 34356ft 455kts
01-Mar-21 16:29 39.147120 -107.874449 246 34356ft 456kts
01-Mar-21 16:30 39.094666 -108.023519 246 34356ft 456kts
01-Mar-21 16:31 39.042308 -108.171559 246 34356ft 456kts
01-Mar-21 16:31 38.998209 -108.295674 247 34357ft 457kts
01-Mar-21 16:32 38.944950 -108.444890 247 34357ft 460kts
01-Mar-21 16:34 38.882419 -108.619101 247 34356ft 463kts
01-Mar-21 16:35 38.828178 -108.769461 247 34356ft 463kts
01-Mar-21 16:36 38.774040 -108.918735 247 34356ft 463kts
01-Mar-21 16:36 38.728652 -109.043270 246 34356ft 461kts
01-Mar-21 16:37 38.674750 -109.190454 245 34356ft 453kts
01-Mar-21 16:38 38.621402 -109.335333 245 34357ft 453kts
01-Mar-21 16:39 38.567509 -109.481086 245 34356ft 453kts
01-Mar-21 16:40 38.513384 -109.626750 245 34356ft 453kts
01-Mar-21 16:41 38.459286 -109.771694 244 34356ft 453kts
01-Mar-21 16:42 38.404967 -109.916511 244 34356ft 453kts
01-Mar-21 16:43 38.350408 -110.061257 244 34359ft 453kts
01-Mar-21 16:44 38.295773 -110.205504 244 34368ft 453kts
01-Mar-21 16:45 38.241016 -110.349389 244 34374ft 453kts
01-Mar-21 16:46 38.185878 -110.493591 244 34375ft 453kts
01-Mar-21 16:47 38.130417 -110.637954 244 34375ft 453kts
01-Mar-21 16:48 38.075142 -110.781192 244 34375ft 453kts
01-Mar-21 16:49 38.019521 -110.924697 243 34375ft 453kts
01-Mar-21 16:50 37.964312 -111.067186 242 34374ft 447kts
01-Mar-21 16:51 37.909580 -111.206011 242 34365ft 440kts
01-Mar-21 16:52 37.854918 -111.344697 242 34343ft 442kts
01-Mar-21 16:53 37.799984 -111.483709 242 34338ft 441kts
01-Mar-21 16:54 37.744609 -111.623278 242 34338ft 441kts
01-Mar-21 16:55 37.689314 -111.762022 241 34338ft 441kts
01-Mar-21 16:56 37.633981 -111.900252 241 34338ft 441kts
01-Mar-21 16:57 37.578471 -112.038326 241 34338ft 441kts
01-Mar-21 16:58 37.517493 -112.171695 234 34339ft 440kts
01-Mar-21 16:59 37.449035 -112.299362 235 34338ft 440kts
01-Mar-21 17:00 37.381880 -112.427695 235 34343ft 440kts
01-Mar-21 17:01 37.314865 -112.556148 235 34347ft 441kts
01-Mar-21 17:02 37.247748 -112.684578 235 34346ft 440kts
01-Mar-21 17:03 37.180085 -112.812783 235 34337ft 440kts
01-Mar-21 17:04 37.112909 -112.939936 234 34323ft 425kts
01-Mar-21 17:05 37.049108 -113.060536 234 34330ft 421kts
01-Mar-21 17:06 36.985098 -113.181247 235 33792ft 409kts
01-Mar-21 17:07 36.922973 -113.297557 234 31875ft 397kts
01-Mar-21 17:08 36.862490 -113.409785 235 30020ft 385kts
01-Mar-21 17:09 36.804409 -113.519943 235 28186ft 375kts
01-Mar-21 17:10 36.748465 -113.627769 236 26389ft 365kts
01-Mar-21 17:11 36.693714 -113.731997 234 24640ft 356kts
01-Mar-21 17:12 36.638453 -113.832761 233 22914ft 348kts
01-Mar-21 17:13 36.582413 -113.930711 230 21213ft 339kts
01-Mar-21 17:14 36.524757 -114.022148 231 19546ft 332kts
01-Mar-21 17:15 36.469000 -114.111544 231 17916ft 325kts
01-Mar-21 17:16 36.413666 -114.200397 231 16007ft 326kts
01-Mar-21 17:17 36.359975 -114.285255 230 14583ft 301kts
01-Mar-21 17:18 36.308281 -114.366219 231 13105ft 297kts
01-Mar-21 17:19 36.257516 -114.445667 231 11669ft 292kts
01-Mar-21 17:20 36.207400 -114.523057 230 10243ft 286kts
01-Mar-21 17:21 36.159532 -114.597925 230 9154ft 274kts
01-Mar-21 17:22 36.113918 -114.667961 229 8507ft 246kts
01-Mar-21 17:23 36.076668 -114.729897 251 7980ft 214kts
01-Mar-21 17:24 36.073405 -114.804988 268 7253ft 214kts
01-Mar-21 17:25 36.073510 -114.871191 269 6187ft 184kts
01-Mar-21 17:26 36.073620 -114.934173 269 5151ft 181kts
01-Mar-21 17:27 36.073652 -114.994971 269 4165ft 173kts
01-Mar-21 17:28 36.073664 -115.054128 269 3225ft 170kts
01-Mar-21 17:29 36.073653 -115.109751 270 2356ft 158kts
01-Mar-21 17:30 36.073630 -115.155490 270 2143ft 68kts
01-Mar-21 17:31 36.075003 -115.161274 0 2163ft 4kts
01-Mar-21 17:32 36.077477 -115.161256 356 2156ft 1kts
01-Mar-21 17:33 36.078038 -115.158082 89 2145ft 17kts
01-Mar-21 17:34 36.078042 -115.151888 89 2120ft 21kts
01-Mar-21 17:35 36.078534 -115.147198 359 2103ft 9kts
01-Mar-21 17:36 36.080278 -115.147426 67 2098ft 2kts
01-Mar-21 17:37 36.080320 -115.147310 65 2098ft 0kts
01-Mar-21 17:38 36.080320 -115.147310 65 2098ft 0kts
01-Mar-21 17:39 36.080320 -115.147310 65 2098ft 0kts

Navigation Log

Ident Type
Flight plan parsing failed, navigation log unavailable